This is the latest recevied weather packets stored in our database for station/object SQ7FJB-2. If no packets are shown the sender has not sent any weather packets the latest 10 day(s).
| Time | Temp. | Humidity | Pressure | Rain* | Wind** | Luminosity | Snow |
|---|---|---|---|---|---|---|---|
| 1778011941 | 13.89° C | 47% | 1004.7 hPa | 0 mm | - | - | - |
| 1778011340 | 14.44° C | 47% | 1004.6 hPa | 0 mm | - | - | - |
| 1778010729 | 15° C | 46% | 1004.5 hPa | 0 mm | - | - | - |
| 1778010128 | 13.89° C | 47% | 1004.6 hPa | 0 mm | - | - | - |
| 1778009516 | 13.89° C | 50% | 1004.7 hPa | 0 mm | - | - | - |
| 1778008916 | 14.44° C | 49% | 1004.7 hPa | 0 mm | - | - | - |
| 1778008316 | 14.44° C | 49% | 1004.6 hPa | 0 mm | - | - | - |
| 1778007716 | 15.56° C | 45% | 1004.7 hPa | 0 mm | - | - | - |
| 1778007103 | 16.11° C | 41% | 1004.6 hPa | 0 mm | - | - | - |
| 1778006491 | 16.67° C | 38% | 1004.6 hPa | 0 mm | - | - | - |
| 1778005891 | 17.22° C | 39% | 1004.6 hPa | 0 mm | - | - | - |
| 1778005290 | 16.67° C | 42% | 1004.6 hPa | 0 mm | - | - | - |
| 1778004678 | 17.22° C | 45% | 1004.4 hPa | 0 mm | - | - | - |
| 1778002854 | 20.56° C | 39% | 1004.2 hPa | 0 mm | - | - | - |
| 1778002253 | 22.22° C | 31% | 1004.2 hPa | 0 mm | - | - | - |
| 1778001653 | 22.78° C | 31% | 1004.2 hPa | 0 mm | - | - | - |
| 1778001041 | 24.44° C | 26% | 1004.2 hPa | 0 mm | - | - | - |
| 1778000429 | 24.44° C | 25% | 1004.1 hPa | 0 mm | - | - | - |
| 1777999828 | 24.44° C | 24% | 1004.1 hPa | 0 mm | - | - | - |
| 1777999228 | 25° C | 23% | 1004.2 hPa | 0 mm | - | - | - |
| 1777998616 | 25.56° C | 23% | 1004.2 hPa | 0 mm | - | - | - |
| 1777998016 | 25.56° C | 22% | 1004.3 hPa | 0 mm | - | - | - |
| 1777997403 | 26.11° C | 21% | 1004.3 hPa | 0 mm | - | - | - |
| 1777996791 | 26.11° C | 22% | 1004.4 hPa | 0 mm | - | - | - |
| 1777996178 | 26.67° C | 23% | 1004.4 hPa | 0 mm | - | - | - |
* Rain latest hour (hover to see other rain measurements)
** Current wind speed in m/s (hover to see current wind gust speed)